sensor_id;sensor_type;location;lat;lon;timestamp;P1;durP1;ratioP1;P2;durP2;ratioP2
12970;SDS011;6550;48.650;8.774;2023-07-16T00:01:28;0.50;;;0.50;;
12970;SDS011;6550;48.650;8.774;2023-07-16T00:03:54;2.40;;;0.60;;
12970;SDS011;6550;48.650;8.774;2023-07-16T00:06:21;0.53;;;0.50;;
12970;SDS011;6550;48.650;8.774;2023-07-16T00:08:48;2.00;;;0.50;;
12970;SDS011;6550;48.650;8.774;2023-07-16T00:11:15;4.17;;;0.70;;
12970;SDS011;6550;48.650;8.774;2023-07-16T00:13:44;0.70;;;0.50;;
12970;SDS011;6550;48.650;8.774;2023-07-16T00:16:14;0.60;;;0.50;;
12970;SDS011;6550;48.650;8.774;2023-07-16T00:18:41;0.67;;;0.50;;
12970;SDS011;6550;48.650;8.774;2023-07-16T00:21:11;1.70;;;0.60;;
12970;SDS011;6550;48.650;8.774;2023-07-16T00:23:40;0.40;;;0.40;;
12970;SDS011;6550;48.650;8.774;2023-07-16T00:26:09;0.67;;;0.40;;
12970;SDS011;6550;48.650;8.774;2023-07-16T00:28:36;2.37;;;0.50;;
12970;SDS011;6550;48.650;8.774;2023-07-16T00:31:03;0.80;;;0.50;;
12970;SDS011;6550;48.650;8.774;2023-07-16T00:33:30;0.83;;;0.60;;
12970;SDS011;6550;48.650;8.774;2023-07-16T00:35:56;0.40;;;0.40;;
12970;SDS011;6550;48.650;8.774;2023-07-16T00:38:23;4.90;;;0.53;;
12970;SDS011;6550;48.650;8.774;2023-07-16T00:40:52;0.70;;;0.70;;
12970;SDS011;6550;48.650;8.774;2023-07-16T00:43:21;1.03;;;0.60;;
12970;SDS011;6550;48.650;8.774;2023-07-16T00:45:48;0.57;;;0.40;;
12970;SDS011;6550;48.650;8.774;2023-07-16T00:48:20;0.40;;;0.40;;
12970;SDS011;6550;48.650;8.774;2023-07-16T00:50:47;0.60;;;0.60;;
12970;SDS011;6550;48.650;8.774;2023-07-16T00:53:14;1.13;;;0.50;;
12970;SDS011;6550;48.650;8.774;2023-07-16T00:55:41;0.50;;;0.50;;
12970;SDS011;6550;48.650;8.774;2023-07-16T00:58:08;1.20;;;0.67;;
12970;SDS011;6550;48.650;8.774;2023-07-16T01:00:36;1.23;;;0.60;;
12970;SDS011;6550;48.650;8.774;2023-07-16T01:03:06;0.50;;;0.50;;
12970;SDS011;6550;48.650;8.774;2023-07-16T01:05:38;1.27;;;0.70;;
12970;SDS011;6550;48.650;8.774;2023-07-16T01:08:32;1.50;;;0.50;;
12970;SDS011;6550;48.650;8.774;2023-07-16T01:11:11;2.33;;;0.60;;
12970;SDS011;6550;48.650;8.774;2023-07-16T01:13:38;0.80;;;0.60;;
12970;SDS011;6550;48.650;8.774;2023-07-16T01:16:06;3.50;;;0.60;;
12970;SDS011;6550;48.650;8.774;2023-07-16T01:18:33;1.33;;;0.70;;
12970;SDS011;6550;48.650;8.774;2023-07-16T01:20:59;0.80;;;0.50;;
12970;SDS011;6550;48.650;8.774;2023-07-16T01:23:30;3.53;;;0.50;;
12970;SDS011;6550;48.650;8.774;2023-07-16T01:31:28;2.23;;;0.70;;
12970;SDS011;6550;48.650;8.774;2023-07-16T01:33:57;0.80;;;0.60;;
12970;SDS011;6550;48.650;8.774;2023-07-16T01:36:25;0.70;;;0.70;;
12970;SDS011;6550;48.650;8.774;2023-07-16T01:38:54;1.10;;;0.80;;
12970;SDS011;6550;48.650;8.774;2023-07-16T01:41:21;0.67;;;0.60;;
12970;SDS011;6550;48.650;8.774;2023-07-16T01:43:48;1.93;;;1.00;;
12970;SDS011;6550;48.650;8.774;2023-07-16T01:46:15;1.58;;;0.70;;
12970;SDS011;6550;48.650;8.774;2023-07-16T01:48:42;0.57;;;0.50;;
12970;SDS011;6550;48.650;8.774;2023-07-16T01:51:11;0.70;;;0.70;;
12970;SDS011;6550;48.650;8.774;2023-07-16T01:53:40;2.00;;;0.70;;
12970;SDS011;6550;48.650;8.774;2023-07-16T01:56:07;0.90;;;0.60;;
12970;SDS011;6550;48.650;8.774;2023-07-16T01:58:34;4.20;;;0.73;;
12970;SDS011;6550;48.650;8.774;2023-07-16T02:01:01;1.93;;;0.70;;
12970;SDS011;6550;48.650;8.774;2023-07-16T02:03:28;2.10;;;0.57;;
12970;SDS011;6550;48.650;8.774;2023-07-16T02:05:57;2.53;;;0.67;;
12970;SDS011;6550;48.650;8.774;2023-07-16T02:08:26;1.27;;;0.70;;
12970;SDS011;6550;48.650;8.774;2023-07-16T02:10:53;1.63;;;0.80;;
12970;SDS011;6550;48.650;8.774;2023-07-16T02:13:20;2.33;;;0.60;;
12970;SDS011;6550;48.650;8.774;2023-07-16T02:15:47;0.70;;;0.70;;
12970;SDS011;6550;48.650;8.774;2023-07-16T02:18:14;0.93;;;0.83;;
12970;SDS011;6550;48.650;8.774;2023-07-16T02:20:43;3.17;;;0.63;;
12970;SDS011;6550;48.650;8.774;2023-07-16T02:23:10;1.37;;;0.77;;
12970;SDS011;6550;48.650;8.774;2023-07-16T02:25:39;1.33;;;0.77;;
12970;SDS011;6550;48.650;8.774;2023-07-16T02:28:06;2.03;;;0.70;;
12970;SDS011;6550;48.650;8.774;2023-07-16T02:30:33;1.40;;;0.60;;
12970;SDS011;6550;48.650;8.774;2023-07-16T02:33:02;1.73;;;0.70;;
12970;SDS011;6550;48.650;8.774;2023-07-16T02:35:29;2.40;;;0.60;;
12970;SDS011;6550;48.650;8.774;2023-07-16T02:38:00;4.77;;;0.87;;
12970;SDS011;6550;48.650;8.774;2023-07-16T02:40:29;1.20;;;0.80;;
12970;SDS011;6550;48.650;8.774;2023-07-16T02:42:56;3.93;;;0.80;;
12970;SDS011;6550;48.650;8.774;2023-07-16T02:45:22;1.67;;;0.90;;
12970;SDS011;6550;48.650;8.774;2023-07-16T02:47:51;0.83;;;0.70;;
12970;SDS011;6550;48.650;8.774;2023-07-16T02:50:18;3.03;;;1.13;;
12970;SDS011;6550;48.650;8.774;2023-07-16T02:52:50;1.80;;;0.80;;
12970;SDS011;6550;48.650;8.774;2023-07-16T02:55:17;3.07;;;0.80;;
12970;SDS011;6550;48.650;8.774;2023-07-16T02:57:48;0.70;;;0.70;;
12970;SDS011;6550;48.650;8.774;2023-07-16T03:00:15;1.53;;;0.83;;
12970;SDS011;6550;48.650;8.774;2023-07-16T03:02:42;3.07;;;0.80;;
12970;SDS011;6550;48.650;8.774;2023-07-16T03:05:09;2.10;;;0.97;;
12970;SDS011;6550;48.650;8.774;2023-07-16T03:07:38;1.33;;;0.70;;
12970;SDS011;6550;48.650;8.774;2023-07-16T03:10:05;4.60;;;0.80;;
12970;SDS011;6550;48.650;8.774;2023-07-16T03:12:32;3.47;;;0.90;;
12970;SDS011;6550;48.650;8.774;2023-07-16T03:15:01;1.00;;;0.83;;
12970;SDS011;6550;48.650;8.774;2023-07-16T03:17:30;1.23;;;0.87;;
12970;SDS011;6550;48.650;8.774;2023-07-16T03:19:59;1.33;;;0.93;;
12970;SDS011;6550;48.650;8.774;2023-07-16T03:22:31;2.22;;;0.93;;
12970;SDS011;6550;48.650;8.774;2023-07-16T03:24:58;2.50;;;1.03;;
12970;SDS011;6550;48.650;8.774;2023-07-16T03:27:28;2.33;;;1.10;;
12970;SDS011;6550;48.650;8.774;2023-07-16T03:29:55;4.50;;;0.90;;
12970;SDS011;6550;48.650;8.774;2023-07-16T03:32:22;2.63;;;0.93;;
12970;SDS011;6550;48.650;8.774;2023-07-16T03:34:56;2.47;;;0.93;;
12970;SDS011;6550;48.650;8.774;2023-07-16T03:37:25;4.73;;;0.80;;
12970;SDS011;6550;48.650;8.774;2023-07-16T03:39:52;1.43;;;0.80;;
12970;SDS011;6550;48.650;8.774;2023-07-16T03:42:19;0.80;;;0.70;;
12970;SDS011;6550;48.650;8.774;2023-07-16T03:44:48;0.70;;;0.70;;
12970;SDS011;6550;48.650;8.774;2023-07-16T03:47:17;1.03;;;0.77;;
12970;SDS011;6550;48.650;8.774;2023-07-16T03:49:47;3.20;;;0.90;;
12970;SDS011;6550;48.650;8.774;2023-07-16T03:52:13;2.20;;;1.15;;
12970;SDS011;6550;48.650;8.774;2023-07-16T03:54:43;2.80;;;0.80;;
12970;SDS011;6550;48.650;8.774;2023-07-16T03:57:14;5.03;;;1.10;;
12970;SDS011;6550;48.650;8.774;2023-07-16T03:59:41;2.43;;;1.00;;
12970;SDS011;6550;48.650;8.774;2023-07-16T04:02:08;2.20;;;0.90;;
12970;SDS011;6550;48.650;8.774;2023-07-16T04:04:37;1.77;;;0.77;;
12970;SDS011;6550;48.650;8.774;2023-07-16T04:07:06;2.03;;;0.90;;
12970;SDS011;6550;48.650;8.774;2023-07-16T04:09:33;1.50;;;0.73;;
12970;SDS011;6550;48.650;8.774;2023-07-16T04:12:04;3.40;;;0.90;;
12970;SDS011;6550;48.650;8.774;2023-07-16T04:14:32;0.70;;;0.70;;
12970;SDS011;6550;48.650;8.774;2023-07-16T04:17:01;2.27;;;0.90;;
12970;SDS011;6550;48.650;8.774;2023-07-16T04:19:28;2.27;;;1.13;;
12970;SDS011;6550;48.650;8.774;2023-07-16T04:21:55;6.10;;;1.57;;
12970;SDS011;6550;48.650;8.774;2023-07-16T04:24:22;2.43;;;0.67;;
12970;SDS011;6550;48.650;8.774;2023-07-16T04:26:53;1.47;;;0.90;;
12970;SDS011;6550;48.650;8.774;2023-07-16T04:29:20;4.27;;;1.27;;
12970;SDS011;6550;48.650;8.774;2023-07-16T04:31:47;2.33;;;1.10;;
12970;SDS011;6550;48.650;8.774;2023-07-16T04:34:16;3.60;;;0.90;;
12970;SDS011;6550;48.650;8.774;2023-07-16T04:36:44;6.60;;;1.33;;
12970;SDS011;6550;48.650;8.774;2023-07-16T04:39:10;1.00;;;0.80;;
12970;SDS011;6550;48.650;8.774;2023-07-16T04:41:40;4.23;;;1.17;;
12970;SDS011;6550;48.650;8.774;2023-07-16T04:44:06;2.53;;;1.10;;
12970;SDS011;6550;48.650;8.774;2023-07-16T04:46:36;3.20;;;1.00;;
12970;SDS011;6550;48.650;8.774;2023-07-16T04:49:02;1.30;;;0.87;;
12970;SDS011;6550;48.650;8.774;2023-07-16T04:51:30;5.77;;;1.47;;
12970;SDS011;6550;48.650;8.774;2023-07-16T04:53:57;3.13;;;1.10;;
12970;SDS011;6550;48.650;8.774;2023-07-16T04:56:26;4.90;;;1.00;;
12970;SDS011;6550;48.650;8.774;2023-07-16T04:58:55;2.07;;;1.03;;
12970;SDS011;6550;48.650;8.774;2023-07-16T05:01:22;3.47;;;1.20;;
12970;SDS011;6550;48.650;8.774;2023-07-16T05:03:51;4.25;;;1.30;;
12970;SDS011;6550;48.650;8.774;2023-07-16T05:06:18;4.80;;;1.07;;
12970;SDS011;6550;48.650;8.774;2023-07-16T05:08:45;3.40;;;1.17;;
12970;SDS011;6550;48.650;8.774;2023-07-16T05:11:13;3.43;;;1.20;;
12970;SDS011;6550;48.650;8.774;2023-07-16T05:13:40;3.53;;;1.03;;
12970;SDS011;6550;48.650;8.774;2023-07-16T05:16:09;2.87;;;1.03;;
12970;SDS011;6550;48.650;8.774;2023-07-16T05:18:38;1.63;;;1.00;;
12970;SDS011;6550;48.650;8.774;2023-07-16T05:21:10;2.10;;;1.00;;
12970;SDS011;6550;48.650;8.774;2023-07-16T05:23:36;2.53;;;1.15;;
12970;SDS011;6550;48.650;8.774;2023-07-16T05:26:05;6.60;;;1.20;;
12970;SDS011;6550;48.650;8.774;2023-07-16T05:28:32;3.63;;;1.10;;
12970;SDS011;6550;48.650;8.774;2023-07-16T05:31:02;1.63;;;1.30;;
12970;SDS011;6550;48.650;8.774;2023-07-16T05:33:29;3.57;;;1.30;;
12970;SDS011;6550;48.650;8.774;2023-07-16T05:35:56;2.77;;;1.30;;
12970;SDS011;6550;48.650;8.774;2023-07-16T05:38:23;2.33;;;1.07;;
12970;SDS011;6550;48.650;8.774;2023-07-16T05:40:50;4.40;;;1.27;;
12970;SDS011;6550;48.650;8.774;2023-07-16T05:43:19;5.30;;;1.40;;
12970;SDS011;6550;48.650;8.774;2023-07-16T05:45:46;3.97;;;1.20;;
12970;SDS011;6550;48.650;8.774;2023-07-16T05:48:16;4.30;;;1.10;;
12970;SDS011;6550;48.650;8.774;2023-07-16T05:50:43;5.37;;;1.17;;
12970;SDS011;6550;48.650;8.774;2023-07-16T05:53:11;2.10;;;1.20;;
12970;SDS011;6550;48.650;8.774;2023-07-16T05:55:40;3.25;;;1.50;;
12970;SDS011;6550;48.650;8.774;2023-07-16T05:58:10;1.83;;;0.90;;
12970;SDS011;6550;48.650;8.774;2023-07-16T06:00:39;6.47;;;1.40;;
12970;SDS011;6550;48.650;8.774;2023-07-16T06:03:06;5.13;;;1.20;;
12970;SDS011;6550;48.650;8.774;2023-07-16T06:05:33;1.60;;;0.87;;
12970;SDS011;6550;48.650;8.774;2023-07-16T06:08:00;1.43;;;1.07;;
12970;SDS011;6550;48.650;8.774;2023-07-16T06:10:30;2.60;;;1.17;;
12970;SDS011;6550;48.650;8.774;2023-07-16T06:12:59;1.43;;;0.80;;
12970;SDS011;6550;48.650;8.774;2023-07-16T06:15:26;3.33;;;0.90;;
12970;SDS011;6550;48.650;8.774;2023-07-16T06:17:55;4.30;;;0.97;;
12970;SDS011;6550;48.650;8.774;2023-07-16T06:20:22;1.70;;;0.93;;
12970;SDS011;6550;48.650;8.774;2023-07-16T06:22:50;1.27;;;0.90;;
12970;SDS011;6550;48.650;8.774;2023-07-16T06:25:17;3.80;;;1.40;;
12970;SDS011;6550;48.650;8.774;2023-07-16T06:27:44;3.00;;;1.33;;
12970;SDS011;6550;48.650;8.774;2023-07-16T06:30:11;3.33;;;1.23;;
12970;SDS011;6550;48.650;8.774;2023-07-16T06:32:40;3.63;;;1.13;;
12970;SDS011;6550;48.650;8.774;2023-07-16T06:35:09;1.33;;;1.20;;
12970;SDS011;6550;48.650;8.774;2023-07-16T06:37:36;3.53;;;1.30;;
12970;SDS011;6550;48.650;8.774;2023-07-16T06:40:05;1.13;;;0.90;;
12970;SDS011;6550;48.650;8.774;2023-07-16T06:42:35;1.43;;;1.20;;
12970;SDS011;6550;48.650;8.774;2023-07-16T06:45:04;3.50;;;1.30;;
12970;SDS011;6550;48.650;8.774;2023-07-16T06:47:33;4.63;;;1.30;;
12970;SDS011;6550;48.650;8.774;2023-07-16T06:50:00;3.73;;;1.20;;
12970;SDS011;6550;48.650;8.774;2023-07-16T06:52:27;4.33;;;1.30;;
12970;SDS011;6550;48.650;8.774;2023-07-16T06:54:57;2.63;;;1.10;;
12970;SDS011;6550;48.650;8.774;2023-07-16T06:57:23;1.40;;;1.00;;
12970;SDS011;6550;48.650;8.774;2023-07-16T06:59:52;1.23;;;1.00;;
12970;SDS011;6550;48.650;8.774;2023-07-16T07:02:19;1.17;;;1.07;;
12970;SDS011;6550;48.650;8.774;2023-07-16T07:04:49;1.47;;;1.03;;
12970;SDS011;6550;48.650;8.774;2023-07-16T07:07:18;1.70;;;1.10;;
12970;SDS011;6550;48.650;8.774;2023-07-16T07:09:48;4.90;;;1.40;;
12970;SDS011;6550;48.650;8.774;2023-07-16T07:12:17;2.97;;;1.50;;
12970;SDS011;6550;48.650;8.774;2023-07-16T07:14:44;3.10;;;1.50;;
12970;SDS011;6550;48.650;8.774;2023-07-16T07:17:10;2.67;;;1.50;;
12970;SDS011;6550;48.650;8.774;2023-07-16T07:19:37;2.17;;;1.27;;
12970;SDS011;6550;48.650;8.774;2023-07-16T07:22:04;4.93;;;1.43;;
12970;SDS011;6550;48.650;8.774;2023-07-16T07:24:33;2.30;;;1.20;;
12970;SDS011;6550;48.650;8.774;2023-07-16T07:27:00;3.43;;;0.93;;
12970;SDS011;6550;48.650;8.774;2023-07-16T07:29:26;3.50;;;1.30;;
12970;SDS011;6550;48.650;8.774;2023-07-16T07:31:55;3.37;;;1.40;;
12970;SDS011;6550;48.650;8.774;2023-07-16T07:34:27;2.10;;;1.10;;
12970;SDS011;6550;48.650;8.774;2023-07-16T07:36:56;3.73;;;1.10;;
12970;SDS011;6550;48.650;8.774;2023-07-16T07:39:25;3.10;;;1.40;;
12970;SDS011;6550;48.650;8.774;2023-07-16T07:41:52;3.70;;;1.10;;
12970;SDS011;6550;48.650;8.774;2023-07-16T07:44:19;4.20;;;1.40;;
12970;SDS011;6550;48.650;8.774;2023-07-16T07:46:45;2.10;;;1.17;;
12970;SDS011;6550;48.650;8.774;2023-07-16T07:49:12;2.73;;;1.37;;
12970;SDS011;6550;48.650;8.774;2023-07-16T07:51:39;2.20;;;1.30;;
12970;SDS011;6550;48.650;8.774;2023-07-16T07:54:10;1.77;;;1.20;;
12970;SDS011;6550;48.650;8.774;2023-07-16T07:56:40;4.17;;;1.30;;
12970;SDS011;6550;48.650;8.774;2023-07-16T07:59:06;2.40;;;1.40;;
12970;SDS011;6550;48.650;8.774;2023-07-16T08:01:36;1.73;;;1.20;;
12970;SDS011;6550;48.650;8.774;2023-07-16T08:04:03;2.73;;;1.40;;
12970;SDS011;6550;48.650;8.774;2023-07-16T08:06:35;2.77;;;1.17;;
12970;SDS011;6550;48.650;8.774;2023-07-16T08:09:01;4.40;;;1.27;;
12970;SDS011;6550;48.650;8.774;2023-07-16T08:11:28;1.23;;;1.00;;
12970;SDS011;6550;48.650;8.774;2023-07-16T08:13:57;2.60;;;1.30;;
12970;SDS011;6550;48.650;8.774;2023-07-16T08:16:29;2.20;;;1.03;;
12970;SDS011;6550;48.650;8.774;2023-07-16T08:18:56;1.27;;;1.00;;
12970;SDS011;6550;48.650;8.774;2023-07-16T08:21:25;1.80;;;1.37;;
12970;SDS011;6550;48.650;8.774;2023-07-16T08:23:52;1.30;;;1.00;;
12970;SDS011;6550;48.650;8.774;2023-07-16T08:26:18;1.80;;;1.07;;
12970;SDS011;6550;48.650;8.774;2023-07-16T08:28:47;1.30;;;1.20;;
12970;SDS011;6550;48.650;8.774;2023-07-16T08:31:16;1.83;;;1.10;;
12970;SDS011;6550;48.650;8.774;2023-07-16T08:33:46;1.00;;;0.93;;
12970;SDS011;6550;48.650;8.774;2023-07-16T08:36:12;1.57;;;1.07;;
12970;SDS011;6550;48.650;8.774;2023-07-16T08:38:40;1.63;;;0.97;;
12970;SDS011;6550;48.650;8.774;2023-07-16T08:41:06;3.77;;;1.20;;
12970;SDS011;6550;48.650;8.774;2023-07-16T08:43:33;2.17;;;1.53;;
12970;SDS011;6550;48.650;8.774;2023-07-16T08:46:02;3.40;;;1.00;;
12970;SDS011;6550;48.650;8.774;2023-07-16T08:48:34;1.83;;;1.10;;
12970;SDS011;6550;48.650;8.774;2023-07-16T08:51:01;1.23;;;1.10;;
12970;SDS011;6550;48.650;8.774;2023-07-16T08:53:30;1.97;;;1.00;;
12970;SDS011;6550;48.650;8.774;2023-07-16T08:56:02;3.37;;;1.20;;
12970;SDS011;6550;48.650;8.774;2023-07-16T08:58:31;3.30;;;1.47;;
12970;SDS011;6550;48.650;8.774;2023-07-16T09:00:59;2.15;;;1.30;;
12970;SDS011;6550;48.650;8.774;2023-07-16T09:03:29;3.20;;;1.47;;
12970;SDS011;6550;48.650;8.774;2023-07-16T09:05:58;2.77;;;1.00;;
12970;SDS011;6550;48.650;8.774;2023-07-16T09:08:25;1.20;;;1.00;;
12970;SDS011;6550;48.650;8.774;2023-07-16T09:10:55;2.80;;;1.13;;
12970;SDS011;6550;48.650;8.774;2023-07-16T09:13:25;1.47;;;1.17;;
12970;SDS011;6550;48.650;8.774;2023-07-16T09:15:55;1.77;;;1.30;;
12970;SDS011;6550;48.650;8.774;2023-07-16T09:18:25;2.47;;;1.30;;
12970;SDS011;6550;48.650;8.774;2023-07-16T09:20:59;4.40;;;1.33;;
12970;SDS011;6550;48.650;8.774;2023-07-16T09:23:29;1.90;;;0.97;;
12970;SDS011;6550;48.650;8.774;2023-07-16T09:25:57;2.83;;;1.17;;
12970;SDS011;6550;48.650;8.774;2023-07-16T09:28:24;1.43;;;1.20;;
12970;SDS011;6550;48.650;8.774;2023-07-16T09:30:51;1.27;;;1.17;;
12970;SDS011;6550;48.650;8.774;2023-07-16T09:33:20;2.73;;;1.20;;
12970;SDS011;6550;48.650;8.774;2023-07-16T09:35:49;4.00;;;1.00;;
12970;SDS011;6550;48.650;8.774;2023-07-16T09:38:17;2.80;;;1.20;;
12970;SDS011;6550;48.650;8.774;2023-07-16T09:40:52;3.20;;;1.45;;
12970;SDS011;6550;48.650;8.774;2023-07-16T09:43:24;3.43;;;1.30;;
12970;SDS011;6550;48.650;8.774;2023-07-16T09:45:53;1.77;;;1.27;;
12970;SDS011;6550;48.650;8.774;2023-07-16T09:48:22;1.77;;;1.10;;
12970;SDS011;6550;48.650;8.774;2023-07-16T09:50:52;3.58;;;1.50;;
12970;SDS011;6550;48.650;8.774;2023-07-16T09:53:20;2.27;;;1.30;;
12970;SDS011;6550;48.650;8.774;2023-07-16T09:55:54;3.07;;;1.23;;
12970;SDS011;6550;48.650;8.774;2023-07-16T09:58:21;2.47;;;1.30;;
12970;SDS011;6550;48.650;8.774;2023-07-16T10:00:49;2.60;;;1.10;;
12970;SDS011;6550;48.650;8.774;2023-07-16T10:03:17;2.23;;;1.33;;
12970;SDS011;6550;48.650;8.774;2023-07-16T10:05:44;3.43;;;1.30;;
12970;SDS011;6550;48.650;8.774;2023-07-16T10:08:17;2.63;;;1.30;;
12970;SDS011;6550;48.650;8.774;2023-07-16T10:10:53;1.87;;;1.20;;
12970;SDS011;6550;48.650;8.774;2023-07-16T10:13:23;2.23;;;1.20;;
12970;SDS011;6550;48.650;8.774;2023-07-16T10:15:54;1.13;;;0.97;;
12970;SDS011;6550;48.650;8.774;2023-07-16T10:18:25;1.53;;;1.10;;
12970;SDS011;6550;48.650;8.774;2023-07-16T10:21:05;2.40;;;1.10;;
12970;SDS011;6550;48.650;8.774;2023-07-16T10:23:37;1.43;;;1.00;;
12970;SDS011;6550;48.650;8.774;2023-07-16T10:26:09;5.77;;;1.60;;
12970;SDS011;6550;48.650;8.774;2023-07-16T10:28:45;1.60;;;1.17;;
12970;SDS011;6550;48.650;8.774;2023-07-16T10:31:25;2.53;;;1.43;;
12970;SDS011;6550;48.650;8.774;2023-07-16T10:33:57;3.80;;;1.53;;
12970;SDS011;6550;48.650;8.774;2023-07-16T10:36:26;1.97;;;1.40;;
12970;SDS011;6550;48.650;8.774;2023-07-16T10:39:03;3.30;;;1.07;;
12970;SDS011;6550;48.650;8.774;2023-07-16T10:41:30;1.40;;;1.20;;
12970;SDS011;6550;48.650;8.774;2023-07-16T10:44:01;1.77;;;1.30;;
12970;SDS011;6550;48.650;8.774;2023-07-16T10:46:28;2.67;;;1.40;;
12970;SDS011;6550;48.650;8.774;2023-07-16T10:49:00;2.37;;;1.30;;
12970;SDS011;6550;48.650;8.774;2023-07-16T10:51:27;1.90;;;1.40;;
12970;SDS011;6550;48.650;8.774;2023-07-16T10:53:57;1.13;;;1.03;;
12970;SDS011;6550;48.650;8.774;2023-07-16T10:56:26;1.40;;;1.30;;
12970;SDS011;6550;48.650;8.774;2023-07-16T10:58:56;1.67;;;1.27;;
12970;SDS011;6550;48.650;8.774;2023-07-16T11:01:22;1.37;;;1.20;;
12970;SDS011;6550;48.650;8.774;2023-07-16T11:03:49;2.53;;;1.30;;
12970;SDS011;6550;48.650;8.774;2023-07-16T11:06:19;2.00;;;1.20;;
12970;SDS011;6550;48.650;8.774;2023-07-16T11:08:48;3.73;;;1.10;;
12970;SDS011;6550;48.650;8.774;2023-07-16T11:11:26;1.30;;;1.20;;
12970;SDS011;6550;48.650;8.774;2023-07-16T11:13:54;4.53;;;1.40;;
12970;SDS011;6550;48.650;8.774;2023-07-16T11:16:23;2.00;;;1.30;;
12970;SDS011;6550;48.650;8.774;2023-07-16T11:18:51;3.33;;;1.37;;
12970;SDS011;6550;48.650;8.774;2023-07-16T11:21:20;2.20;;;1.80;;
12970;SDS011;6550;48.650;8.774;2023-07-16T11:23:49;1.97;;;1.63;;
12970;SDS011;6550;48.650;8.774;2023-07-16T11:26:16;2.23;;;1.67;;
12970;SDS011;6550;48.650;8.774;2023-07-16T11:28:43;1.50;;;1.40;;
12970;SDS011;6550;48.650;8.774;2023-07-16T11:31:14;1.63;;;1.20;;
12970;SDS011;6550;48.650;8.774;2023-07-16T11:33:42;3.27;;;1.37;;
12970;SDS011;6550;48.650;8.774;2023-07-16T11:36:12;2.03;;;1.37;;
12970;SDS011;6550;48.650;8.774;2023-07-16T11:38:43;2.73;;;1.43;;
12970;SDS011;6550;48.650;8.774;2023-07-16T11:41:14;2.20;;;1.53;;
12970;SDS011;6550;48.650;8.774;2023-07-16T11:43:45;1.90;;;1.30;;
12970;SDS011;6550;48.650;8.774;2023-07-16T11:46:15;3.83;;;1.23;;
12970;SDS011;6550;48.650;8.774;2023-07-16T11:48:44;1.37;;;1.20;;
12970;SDS011;6550;48.650;8.774;2023-07-16T11:51:11;1.90;;;1.13;;
12970;SDS011;6550;48.650;8.774;2023-07-16T11:53:40;2.03;;;1.50;;
12970;SDS011;6550;48.650;8.774;2023-07-16T11:56:09;1.60;;;1.20;;
12970;SDS011;6550;48.650;8.774;2023-07-16T11:58:36;1.93;;;1.40;;
12970;SDS011;6550;48.650;8.774;2023-07-16T12:01:03;3.13;;;1.40;;
12970;SDS011;6550;48.650;8.774;2023-07-16T12:03:32;2.87;;;1.30;;
12970;SDS011;6550;48.650;8.774;2023-07-16T12:05:59;4.30;;;1.60;;
12970;SDS011;6550;48.650;8.774;2023-07-16T12:08:28;2.97;;;1.60;;
12970;SDS011;6550;48.650;8.774;2023-07-16T12:10:55;0.93;;;0.90;;
12970;SDS011;6550;48.650;8.774;2023-07-16T12:13:23;3.47;;;1.50;;
12970;SDS011;6550;48.650;8.774;2023-07-16T12:15:50;2.23;;;1.10;;
12970;SDS011;6550;48.650;8.774;2023-07-16T12:18:17;3.07;;;1.47;;
12970;SDS011;6550;48.650;8.774;2023-07-16T12:20:44;5.07;;;1.40;;
12970;SDS011;6550;48.650;8.774;2023-07-16T12:23:11;2.40;;;1.63;;
12970;SDS011;6550;48.650;8.774;2023-07-16T12:25:37;3.20;;;1.37;;
12970;SDS011;6550;48.650;8.774;2023-07-16T12:28:04;1.93;;;1.20;;
12970;SDS011;6550;48.650;8.774;2023-07-16T12:30:31;1.87;;;1.53;;
12970;SDS011;6550;48.650;8.774;2023-07-16T12:32:58;2.60;;;1.30;;
12970;SDS011;6550;48.650;8.774;2023-07-16T12:35:25;1.83;;;1.13;;
12970;SDS011;6550;48.650;8.774;2023-07-16T12:37:52;1.40;;;1.10;;
12970;SDS011;6550;48.650;8.774;2023-07-16T12:40:21;2.40;;;1.43;;
12970;SDS011;6550;48.650;8.774;2023-07-16T12:42:50;1.90;;;1.27;;
12970;SDS011;6550;48.650;8.774;2023-07-16T12:45:16;2.93;;;1.27;;
12970;SDS011;6550;48.650;8.774;2023-07-16T12:47:43;2.63;;;1.40;;
12970;SDS011;6550;48.650;8.774;2023-07-16T12:50:12;4.50;;;1.37;;
12970;SDS011;6550;48.650;8.774;2023-07-16T12:52:39;1.20;;;1.10;;
12970;SDS011;6550;48.650;8.774;2023-07-16T12:55:06;2.17;;;1.20;;
12970;SDS011;6550;48.650;8.774;2023-07-16T12:57:35;2.33;;;1.40;;
12970;SDS011;6550;48.650;8.774;2023-07-16T13:00:02;2.03;;;1.37;;
12970;SDS011;6550;48.650;8.774;2023-07-16T13:02:31;1.53;;;1.40;;
12970;SDS011;6550;48.650;8.774;2023-07-16T13:05:00;5.37;;;1.50;;
12970;SDS011;6550;48.650;8.774;2023-07-16T13:07:27;2.27;;;1.23;;
12970;SDS011;6550;48.650;8.774;2023-07-16T13:09:54;1.20;;;1.00;;
12970;SDS011;6550;48.650;8.774;2023-07-16T13:12:41;1.33;;;1.17;;
12970;SDS011;6550;48.650;8.774;2023-07-16T13:15:08;2.07;;;1.30;;
12970;SDS011;6550;48.650;8.774;2023-07-16T13:17:35;3.27;;;1.57;;
12970;SDS011;6550;48.650;8.774;2023-07-16T13:20:04;3.37;;;1.43;;
12970;SDS011;6550;48.650;8.774;2023-07-16T13:22:31;1.47;;;1.00;;
12970;SDS011;6550;48.650;8.774;2023-07-16T13:30:10;2.10;;;1.10;;
12970;SDS011;6550;48.650;8.774;2023-07-16T13:32:38;1.77;;;1.23;;
12970;SDS011;6550;48.650;8.774;2023-07-16T13:35:05;2.13;;;1.20;;
12970;SDS011;6550;48.650;8.774;2023-07-16T13:37:34;1.43;;;1.20;;
12970;SDS011;6550;48.650;8.774;2023-07-16T13:40:03;2.20;;;1.10;;
12970;SDS011;6550;48.650;8.774;2023-07-16T13:42:30;1.37;;;1.13;;
12970;SDS011;6550;48.650;8.774;2023-07-16T13:44:57;3.90;;;1.27;;
12970;SDS011;6550;48.650;8.774;2023-07-16T13:47:24;1.73;;;1.40;;
12970;SDS011;6550;48.650;8.774;2023-07-16T13:49:57;2.50;;;1.47;;
12970;SDS011;6550;48.650;8.774;2023-07-16T13:52:24;1.90;;;1.30;;
12970;SDS011;6550;48.650;8.774;2023-07-16T13:54:51;1.77;;;1.17;;
12970;SDS011;6550;48.650;8.774;2023-07-16T13:57:18;3.03;;;1.43;;
12970;SDS011;6550;48.650;8.774;2023-07-16T13:59:45;1.97;;;1.20;;
12970;SDS011;6550;48.650;8.774;2023-07-16T14:02:11;1.70;;;1.47;;
12970;SDS011;6550;48.650;8.774;2023-07-16T14:04:41;2.87;;;1.50;;
12970;SDS011;6550;48.650;8.774;2023-07-16T14:07:08;1.80;;;1.23;;
12970;SDS011;6550;48.650;8.774;2023-07-16T14:09:35;2.27;;;1.40;;
12970;SDS011;6550;48.650;8.774;2023-07-16T14:12:06;2.17;;;1.50;;
12970;SDS011;6550;48.650;8.774;2023-07-16T14:14:33;3.00;;;1.47;;
12970;SDS011;6550;48.650;8.774;2023-07-16T14:17:02;2.30;;;1.10;;
12970;SDS011;6550;48.650;8.774;2023-07-16T14:19:30;1.30;;;1.00;;
12970;SDS011;6550;48.650;8.774;2023-07-16T14:22:04;4.80;;;1.47;;
12970;SDS011;6550;48.650;8.774;2023-07-16T14:24:37;1.57;;;1.23;;
12970;SDS011;6550;48.650;8.774;2023-07-16T14:27:06;1.40;;;1.20;;
12970;SDS011;6550;48.650;8.774;2023-07-16T14:29:33;2.07;;;1.10;;
12970;SDS011;6550;48.650;8.774;2023-07-16T14:32:00;1.77;;;1.20;;
12970;SDS011;6550;48.650;8.774;2023-07-16T14:34:27;2.63;;;1.30;;
12970;SDS011;6550;48.650;8.774;2023-07-16T14:36:55;2.13;;;1.33;;
12970;SDS011;6550;48.650;8.774;2023-07-16T14:39:22;4.57;;;1.23;;
12970;SDS011;6550;48.650;8.774;2023-07-16T14:41:51;4.00;;;1.40;;
12970;SDS011;6550;48.650;8.774;2023-07-16T14:44:18;1.83;;;1.30;;
12970;SDS011;6550;48.650;8.774;2023-07-16T14:46:47;1.37;;;1.27;;
12970;SDS011;6550;48.650;8.774;2023-07-16T14:49:16;2.57;;;1.60;;
12970;SDS011;6550;48.650;8.774;2023-07-16T14:51:45;1.47;;;1.17;;
12970;SDS011;6550;48.650;8.774;2023-07-16T14:54:14;1.20;;;1.10;;
12970;SDS011;6550;48.650;8.774;2023-07-16T14:56:40;1.90;;;1.30;;
12970;SDS011;6550;48.650;8.774;2023-07-16T14:59:07;4.63;;;1.33;;
12970;SDS011;6550;48.650;8.774;2023-07-16T15:01:36;1.40;;;1.20;;
12970;SDS011;6550;48.650;8.774;2023-07-16T15:04:05;1.83;;;1.40;;
12970;SDS011;6550;48.650;8.774;2023-07-16T15:06:35;3.63;;;1.30;;
12970;SDS011;6550;48.650;8.774;2023-07-16T15:09:08;2.63;;;1.60;;
12970;SDS011;6550;48.650;8.774;2023-07-16T15:11:35;3.90;;;1.40;;
12970;SDS011;6550;48.650;8.774;2023-07-16T15:14:02;1.87;;;1.30;;
12970;SDS011;6550;48.650;8.774;2023-07-16T15:16:31;3.50;;;1.80;;
12970;SDS011;6550;48.650;8.774;2023-07-16T15:19:00;2.57;;;1.33;;